McAlister, NM (88427)

7:55 PM MDT on October 24, 2014 (GMT -0600)
Tucumcari Municipal | Change Station
CLOSE
Current Station
Airport
Location: Tucumcari,
Elevation: 4065 ft
Nearby Weather Stations

Elev 4065 ft 35.18 °N, 103.60 °W | Updated 1 hour ago

Clear
Clear
71 °F
Feels Like 71 °F
N
10
Wind Variable Wind from South

Today
High -- | Low -- °F
--% Chance of Precip.
Yesterday
High -- | Low -- °F
Precip. -- in
7:08 AM 6:09 PM
New Moon, 1% visible
Pressure 30.00 in
Visibility 10.0 miles
Clouds Clear
Dew Point 42 °F
Humidity 35%
Rainfall 0.00 in
Snow Depth Not available.
UV 0 out of 12
Pollen 5.30 out of 12
Air Quality Not available.
Flu Activity Sporadic
METAR KTCC 250053Z AUTO 18009KT 10SM CLR 22/06 A3010 RMK AO2 SLP159 T02170056

More Conditions Fewer Conditions

Pressure 30.00 in
Visibility 10.0 miles
Clouds Clear
Dew Point 42 °F
Humidity 35%
Rainfall 0.00 in
Snow Depth Not available.
UV 0 out of 12
Pollen 5.30 out of 12
Air Quality Not available.
Flu Activity Sporadic
METAR KTCC 250053Z AUTO 18009KT 10SM CLR 22/06 A3010 RMK AO2 SLP159 T02170056

More Conditions Fewer Conditions

10-Day Weather Forecast

Almanac

Astronomy

Oct. 24, 2014 Rise Set
Actual Time 7:08 AM MDT 6:09 PM MDT
Civil Twilight 6:42 AM MDT 6:34 PM MDT
Nautical Twilight 6:12 AM MDT 7:04 PM MDT
Astronomical Twilight 5:43 AM MDT 7:33 PM MDT
Moon 7:48 AM MDT (10/24) 6:52 PM MDT (10/24)
Length of Visible Light 11h 52m
Length of Day
11h 00m
Tomorrow will be 2m 0s shorter.
New Moon, 1% of the Moon is Illuminated
Today
New Moon
Oct 30
First Quarter
Nov 6
Full
Nov 14
Last Quarter
Nov 22
New

Today's Extremes

State Highs State Lows

Community

WunderPhotos

Upload Photos

1,764,749 photos uploaded!

WunderBlogs® & News

Nearby

Snow Depth

Station Depth Elevation
Elk Cabin 1 in 8210 ft
Gallegos Peak 0 in 9800 ft
Bateman 0 in 9300 ft
Senorita Divide #2 0 in 8600 ft
McKnight Cabin 0 in 9240 ft

Earthquake Activity

City Distance Mag. Time & Date
No recent earthquake activity has been reported nearby.
Minimum magnitude displayed is 2.5.

Coastal Water Temperatures

Place Temperature
No Stations Reporting

Nearby Weather Stations